createdAt,value
2022-11-28T00:00:42.984Z,5.63
2022-11-28T00:04:54.541Z,5.27
2022-11-28T00:09:07.572Z,5.60
2022-11-28T00:13:19.136Z,5.67
2022-11-28T00:17:30.871Z,5.83
2022-11-28T00:21:43.090Z,5.30
2022-11-28T00:26:04.591Z,5.30
2022-11-28T00:30:16.388Z,5.50
2022-11-28T00:34:28.012Z,5.17
2022-11-28T00:38:40.018Z,4.73
2022-11-28T00:42:51.560Z,5.17
2022-11-28T00:47:03.184Z,5.10
2022-11-28T00:51:19.762Z,5.67
2022-11-28T00:55:31.326Z,5.47
2022-11-28T00:59:42.900Z,5.13
2022-11-28T01:03:56.415Z,5.27
2022-11-28T01:08:08.072Z,4.57
2022-11-28T01:12:19.571Z,4.27
2022-11-28T01:16:31.523Z,4.60
2022-11-28T01:20:43.190Z,4.10
2022-11-28T01:24:55.098Z,4.10
2022-11-28T01:29:07.709Z,4.20
2022-11-28T01:33:19.296Z,4.40
2022-11-28T01:37:30.987Z,3.97
2022-11-28T01:41:42.572Z,3.83
2022-11-28T01:45:54.391Z,3.93
2022-11-28T01:50:07.143Z,3.87
2022-11-28T01:54:20.648Z,3.67
2022-11-28T01:58:36.575Z,3.50
2022-11-28T02:02:49.511Z,3.83
2022-11-28T02:07:01.169Z,3.70
2022-11-28T02:11:40.359Z,4.30
2022-11-28T02:16:35.927Z,3.87
2022-11-28T02:21:09.402Z,3.53
2022-11-28T02:25:58.652Z,3.30
2022-11-28T02:30:21.107Z,3.30
2022-11-28T02:34:35.815Z,3.50
2022-11-28T02:39:06.072Z,3.57
2022-11-28T02:43:30.552Z,4.17
2022-11-28T02:47:54.491Z,4.37
2022-11-28T02:52:19.569Z,4.17
2022-11-28T02:56:31.436Z,4.10
2022-11-28T03:00:44.899Z,4.37
2022-11-28T03:05:07.854Z,4.90
2022-11-28T03:09:19.331Z,5.27
2022-11-28T03:13:52.373Z,5.00
2022-11-28T03:18:23.401Z,5.30
2022-11-28T03:22:52.364Z,5.20
2022-11-28T03:27:09.956Z,4.30
2022-11-28T03:31:27.263Z,4.80
2022-11-28T03:35:47.268Z,3.93
2022-11-28T03:40:05.251Z,4.43
2022-11-28T03:44:26.008Z,4.30
2022-11-28T03:48:45.636Z,4.10
2022-11-28T03:53:03.074Z,4.30
2022-11-28T03:57:29.764Z,3.97
2022-11-28T04:01:56.514Z,3.97
2022-11-28T04:06:27.811Z,4.77
2022-11-28T04:10:49.075Z,5.10
2022-11-28T04:15:09.711Z,5.77
2022-11-28T04:19:36.802Z,5.57
2022-11-28T04:23:51.740Z,5.50
2022-11-28T04:28:08.768Z,5.60
2022-11-28T04:32:22.230Z,6.03
2022-11-28T04:36:37.222Z,6.13
2022-11-28T04:41:05.946Z,5.80
2022-11-28T04:45:26.888Z,5.03
2022-11-28T04:49:39.279Z,5.17
2022-11-28T04:54:04.688Z,5.10
2022-11-28T04:58:29.160Z,5.20
2022-11-28T05:02:42.856Z,5.07
2022-11-28T05:07:02.584Z,4.63
2022-11-28T05:11:14.005Z,4.80
2022-11-28T05:15:25.465Z,4.93
2022-11-28T05:19:36.882Z,4.37
2022-11-28T05:23:48.714Z,4.33
2022-11-28T05:28:00.327Z,4.80
2022-11-28T05:32:12.339Z,4.70
2022-11-28T05:36:24.220Z,3.93
2022-11-28T05:40:35.764Z,4.07
2022-11-28T05:44:48.006Z,3.93
2022-11-28T05:48:59.780Z,4.57
2022-11-28T05:53:11.942Z,4.20
2022-11-28T05:57:23.526Z,3.87
2022-11-28T06:01:35.003Z,3.33
2022-11-28T06:05:46.620Z,4.33
2022-11-28T06:09:58.155Z,3.93
2022-11-28T06:14:10.930Z,3.70
2022-11-28T06:18:22.379Z,3.70
2022-11-28T06:22:34.255Z,3.83
2022-11-28T06:26:45.800Z,3.30
2022-11-28T06:30:57.271Z,4.37
2022-11-28T06:35:08.871Z,3.40
2022-11-28T06:39:20.367Z,3.40
2022-11-28T06:43:31.894Z,4.10
2022-11-28T06:47:43.594Z,3.63
2022-11-28T06:51:55.039Z,3.90
2022-11-28T06:56:12.401Z,3.80
2022-11-28T07:00:24.087Z,4.10
2022-11-28T07:04:35.618Z,6.53
2022-11-28T07:08:47.672Z,4.40
2022-11-28T07:13:05.079Z,4.60
2022-11-28T07:17:17.226Z,4.00
2022-11-28T07:21:30.143Z,4.40
2022-11-28T07:25:41.778Z,4.47
2022-11-28T07:29:53.319Z,4.50
2022-11-28T07:34:04.824Z,4.63
2022-11-28T07:38:16.303Z,4.70
2022-11-28T07:42:27.999Z,4.03
2022-11-28T07:46:48.042Z,5.03
2022-11-28T07:50:59.703Z,4.50
2022-11-28T07:55:11.143Z,5.17
2022-11-28T07:59:22.746Z,5.03
2022-11-28T08:03:34.298Z,5.27
2022-11-28T08:07:45.845Z,5.90
2022-11-28T08:11:57.637Z,5.60
2022-11-28T08:16:14.155Z,5.73
2022-11-28T08:20:25.777Z,5.67
2022-11-28T08:24:37.474Z,5.50
2022-11-28T08:28:51.592Z,5.87
2022-11-28T08:33:03.115Z,5.37
2022-11-28T08:37:14.657Z,5.27
2022-11-28T08:41:26.204Z,5.90
2022-11-28T08:45:38.233Z,5.83
2022-11-28T08:49:49.943Z,6.10
2022-11-28T08:54:01.538Z,6.13
2022-11-28T08:58:14.020Z,6.70
2022-11-28T09:02:26.252Z,5.77
2022-11-28T09:06:40.940Z,6.43
2022-11-28T09:10:52.443Z,5.83
2022-11-28T09:15:04.412Z,5.90
2022-11-28T09:19:15.904Z,7.03
2022-11-28T09:23:28.278Z,6.40
2022-11-28T09:27:42.669Z,7.10
2022-11-28T09:31:54.142Z,8.50
2022-11-28T09:36:07.515Z,6.57
2022-11-28T09:40:30.629Z,7.80
2022-11-28T09:44:48.368Z,6.93
2022-11-28T09:49:04.641Z,7.30
2022-11-28T09:53:22.652Z,7.43
2022-11-28T09:57:49.632Z,6.47
2022-11-28T10:02:09.776Z,6.27
2022-11-28T10:06:37.058Z,6.03
2022-11-28T10:10:57.515Z,5.53
2022-11-28T10:15:18.970Z,4.80
2022-11-28T10:19:56.964Z,5.70
2022-11-28T10:24:38.359Z,4.97
2022-11-28T10:28:53.766Z,5.20
2022-11-28T10:33:19.161Z,5.87
2022-11-28T10:37:34.591Z,5.40
2022-11-28T10:42:11.906Z,5.07
2022-11-28T10:46:41.796Z,6.37
2022-11-28T10:50:59.686Z,6.77
2022-11-28T10:55:36.879Z,5.70
2022-11-28T11:00:09.627Z,6.40
2022-11-28T11:04:24.210Z,7.03
2022-11-28T11:08:38.240Z,6.97
2022-11-28T11:12:54.693Z,11.30
2022-11-28T11:17:06.857Z,9.80
2022-11-28T11:21:24.439Z,9.30
2022-11-28T11:25:36.290Z,9.97
2022-11-28T11:29:51.355Z,9.17
2022-11-28T11:34:04.762Z,9.83
2022-11-28T11:38:22.400Z,8.63
2022-11-28T11:42:33.971Z,8.90
2022-11-28T11:46:52.604Z,8.10
2022-11-28T11:51:05.045Z,8.63
2022-11-28T11:55:17.517Z,8.37
2022-11-28T11:59:31.453Z,8.00
2022-11-28T12:03:58.581Z,8.50
2022-11-28T12:08:31.564Z,8.47
2022-11-28T12:12:43.392Z,8.00
2022-11-28T12:17:47.728Z,8.63
2022-11-28T12:22:25.673Z,8.57
2022-11-28T12:26:57.270Z,9.13
2022-11-28T12:31:19.374Z,9.07
2022-11-28T12:35:49.008Z,8.23
2022-11-28T12:40:56.107Z,9.83
2022-11-28T12:45:18.552Z,9.03
2022-11-28T12:49:57.925Z,8.30
2022-11-28T12:54:37.880Z,8.80
2022-11-28T12:59:35.433Z,7.83
2022-11-28T13:04:04.474Z,8.57
2022-11-28T13:08:48.216Z,8.70
2022-11-28T13:13:13.654Z,8.33
2022-11-28T13:17:30.839Z,7.97
2022-11-28T13:22:01.069Z,7.73
2022-11-28T13:26:22.715Z,7.63
2022-11-28T13:30:43.417Z,8.20
2022-11-28T13:34:55.493Z,8.83
2022-11-28T13:39:16.788Z,7.97
2022-11-28T13:43:56.980Z,7.73
2022-11-28T13:49:06.225Z,27.05
2022-11-28T13:53:10.321Z,10.02
2022-11-28T13:57:35.725Z,8.57
2022-11-28T14:01:58.968Z,9.45
2022-11-28T14:06:14.533Z,8.80
2022-11-28T14:10:50.478Z,8.43
2022-11-28T14:15:26.304Z,7.80
2022-11-28T14:20:24.214Z,11.10
2022-11-28T14:24:56.041Z,9.50
2022-11-28T14:29:21.276Z,8.45
2022-11-28T14:33:44.302Z,8.97
2022-11-28T14:37:57.720Z,9.20
2022-11-28T14:42:09.924Z,10.57
2022-11-28T14:46:29.027Z,9.80
2022-11-28T14:50:41.319Z,10.38
2022-11-28T14:54:54.621Z,12.05
2022-11-28T14:59:10.985Z,12.73
2022-11-28T15:03:49.814Z,11.73
2022-11-28T15:08:32.835Z,11.55
2022-11-28T15:13:11.318Z,11.80
2022-11-28T15:17:33.523Z,20.38
2022-11-28T15:21:51.737Z,14.03
2022-11-28T15:26:03.593Z,13.02
2022-11-28T15:30:17.895Z,26.08
2022-11-28T15:34:37.678Z,24.50
2022-11-28T15:38:49.387Z,38.88
2022-11-28T15:43:03.365Z,48.95
2022-11-28T15:47:21.502Z,84.60
2022-11-28T15:51:35.550Z,22.20
2022-11-28T15:55:47.634Z,20.25
2022-11-28T15:59:59.268Z,20.23
2022-11-28T16:04:14.894Z,19.65
2022-11-28T16:08:30.524Z,17.02
2022-11-28T16:12:42.154Z,18.23
2022-11-28T16:16:54.168Z,34.08
2022-11-28T16:21:12.918Z,26.52
2022-11-28T16:25:26.500Z,26.30
2022-11-28T16:29:46.495Z,25.40
2022-11-28T16:33:59.873Z,25.30
2022-11-28T16:38:24.805Z,26.17
2022-11-28T16:42:36.350Z,34.13
2022-11-28T16:46:56.498Z,29.52
2022-11-28T16:51:10.984Z,27.83
2022-11-28T16:55:28.732Z,29.75
2022-11-28T16:59:44.671Z,28.98
2022-11-28T17:03:57.743Z,29.27
2022-11-28T17:08:09.298Z,30.13
2022-11-28T17:12:29.512Z,29.85
2022-11-28T17:16:42.092Z,31.50
2022-11-28T17:20:53.984Z,31.60
2022-11-28T17:25:07.862Z,30.77
2022-11-28T17:29:20.205Z,30.83
2022-11-28T17:33:31.847Z,31.23
2022-11-28T17:37:43.550Z,31.13
2022-11-28T17:41:56.935Z,31.08
2022-11-28T17:46:09.032Z,31.33
2022-11-28T17:50:20.729Z,31.47
2022-11-28T17:54:32.542Z,34.80
2022-11-28T17:58:44.929Z,47.85
2022-11-28T18:02:57.788Z,42.97
2022-11-28T18:07:09.642Z,36.08
2022-11-28T18:11:21.255Z,33.00
2022-11-28T18:15:35.661Z,31.48
2022-11-28T18:19:47.427Z,30.90
2022-11-28T18:23:59.308Z,29.52
2022-11-28T18:28:18.459Z,30.92
2022-11-28T18:32:32.636Z,31.38
2022-11-28T18:36:44.768Z,34.20
2022-11-28T18:40:56.330Z,37.10
2022-11-28T18:45:10.828Z,35.97
2022-11-28T18:49:22.493Z,32.63
2022-11-28T18:53:34.103Z,33.20
2022-11-28T18:57:45.787Z,32.03
2022-11-28T19:01:57.608Z,31.13
2022-11-28T19:06:12.037Z,31.13
2022-11-28T19:10:23.646Z,30.05
2022-11-28T19:14:35.473Z,28.58
2022-11-28T19:18:47.556Z,30.63
2022-11-28T19:22:59.244Z,30.42
2022-11-28T19:27:14.290Z,28.55
2022-11-28T19:31:30.011Z,29.73
2022-11-28T19:35:43.131Z,31.45
2022-11-28T19:39:58.530Z,31.33
2022-11-28T19:44:13.144Z,31.10
2022-11-28T19:48:24.826Z,33.70
2022-11-28T19:52:36.780Z,32.37
2022-11-28T19:57:02.556Z,27.92
2022-11-28T20:01:19.572Z,32.13
2022-11-28T20:05:32.872Z,30.17
2022-11-28T20:09:45.448Z,27.77
2022-11-28T20:14:03.518Z,28.67
2022-11-28T20:18:15.122Z,27.70
2022-11-28T20:22:26.767Z,27.47
2022-11-28T20:26:41.548Z,27.95
2022-11-28T20:30:53.683Z,27.40
2022-11-28T20:35:05.632Z,29.73
2022-11-28T20:39:17.529Z,31.50
2022-11-28T20:43:30.886Z,32.37
2022-11-28T20:47:48.281Z,29.40
2022-11-28T20:52:01.357Z,29.53
2022-11-28T20:56:15.738Z,30.17
2022-11-28T21:00:27.288Z,28.87
2022-11-28T21:04:38.878Z,28.93
2022-11-28T21:08:50.470Z,31.37
2022-11-28T21:13:02.015Z,28.93
2022-11-28T21:17:13.500Z,31.00
2022-11-28T21:21:27.429Z,30.63
2022-11-28T21:25:40.796Z,28.00
2022-11-28T21:29:52.756Z,30.03
2022-11-28T21:34:04.573Z,28.65
2022-11-28T21:38:16.100Z,28.42
2022-11-28T21:42:27.795Z,29.37
2022-11-28T21:46:39.441Z,31.50
2022-11-28T21:50:51.593Z,41.90
2022-11-28T21:55:03.496Z,35.87
2022-11-28T21:59:15.412Z,33.63
2022-11-28T22:03:28.557Z,30.87
2022-11-28T22:07:40.275Z,28.85
2022-11-28T22:11:52.149Z,30.97
2022-11-28T22:16:19.606Z,28.90
2022-11-28T22:20:31.178Z,29.80
2022-11-28T22:24:42.768Z,29.60
2022-11-28T22:28:54.658Z,31.60
2022-11-28T22:33:07.939Z,32.10
2022-11-28T22:37:19.445Z,28.75
2022-11-28T22:41:31.247Z,31.58
2022-11-28T22:45:43.588Z,30.27
2022-11-28T22:49:55.211Z,29.67
2022-11-28T22:54:11.132Z,29.90
2022-11-28T22:58:22.792Z,30.52
2022-11-28T23:02:34.750Z,32.90
2022-11-28T23:06:46.319Z,32.13
2022-11-28T23:10:58.131Z,31.47
2022-11-28T23:15:10.179Z,31.35
2022-11-28T23:19:21.728Z,31.30
2022-11-28T23:23:35.418Z,33.27
2022-11-28T23:27:46.940Z,33.47
2022-11-28T23:31:58.550Z,33.07
2022-11-28T23:36:17.753Z,32.23
2022-11-28T23:40:29.501Z,30.60
2022-11-28T23:44:41.241Z,29.17
2022-11-28T23:48:53.493Z,28.48
2022-11-28T23:53:05.094Z,28.70
2022-11-28T23:57:17.084Z,27.08
